sensor_id;sensor_type;location;lat;lon;timestamp;P1;durP1;ratioP1;P2;durP2;ratioP2
3591;SDS011;1810;48.720;9.094;2022-10-31T00:01:31;403.20;;;383.90;;
3591;SDS011;1810;48.720;9.094;2022-10-31T00:04:00;425.48;;;405.13;;
3591;SDS011;1810;48.720;9.094;2022-10-31T00:06:29;414.80;;;395.33;;
3591;SDS011;1810;48.720;9.094;2022-10-31T00:08:58;418.40;;;398.35;;
3591;SDS011;1810;48.720;9.094;2022-10-31T00:11:28;426.38;;;405.58;;
3591;SDS011;1810;48.720;9.094;2022-10-31T00:13:57;412.92;;;393.35;;
3591;SDS011;1810;48.720;9.094;2022-10-31T00:16:27;419.70;;;399.95;;
3591;SDS011;1810;48.720;9.094;2022-10-31T00:18:57;386.20;;;368.08;;
3591;SDS011;1810;48.720;9.094;2022-10-31T00:21:26;439.00;;;418.15;;
3591;SDS011;1810;48.720;9.094;2022-10-31T00:23:56;410.50;;;391.05;;
3591;SDS011;1810;48.720;9.094;2022-10-31T00:26:26;402.35;;;382.90;;
3591;SDS011;1810;48.720;9.094;2022-10-31T00:28:54;434.90;;;414.17;;
3591;SDS011;1810;48.720;9.094;2022-10-31T00:31:23;382.38;;;364.50;;
3591;SDS011;1810;48.720;9.094;2022-10-31T00:33:53;447.00;;;425.65;;
3591;SDS011;1810;48.720;9.094;2022-10-31T00:36:21;387.55;;;369.58;;
3591;SDS011;1810;48.720;9.094;2022-10-31T00:38:49;374.38;;;356.92;;
3591;SDS011;1810;48.720;9.094;2022-10-31T00:41:18;369.08;;;352.23;;
3591;SDS011;1810;48.720;9.094;2022-10-31T00:43:46;389.63;;;371.48;;
3591;SDS011;1810;48.720;9.094;2022-10-31T00:46:15;416.80;;;396.98;;
3591;SDS011;1810;48.720;9.094;2022-10-31T00:48:43;363.88;;;347.10;;
3591;SDS011;1810;48.720;9.094;2022-10-31T00:51:13;366.38;;;349.10;;
3591;SDS011;1810;48.720;9.094;2022-10-31T00:53:41;386.67;;;368.67;;
3591;SDS011;1810;48.720;9.094;2022-10-31T00:56:10;371.85;;;353.83;;
3591;SDS011;1810;48.720;9.094;2022-10-31T00:58:38;383.00;;;365.27;;
3591;SDS011;1810;48.720;9.094;2022-10-31T01:01:07;368.60;;;351.63;;
3591;SDS011;1810;48.720;9.094;2022-10-31T01:03:35;387.98;;;369.95;;
3591;SDS011;1810;48.720;9.094;2022-10-31T01:06:06;353.50;;;337.27;;
3591;SDS011;1810;48.720;9.094;2022-10-31T01:08:38;366.98;;;349.85;;
3591;SDS011;1810;48.720;9.094;2022-10-31T01:11:07;371.10;;;354.35;;
3591;SDS011;1810;48.720;9.094;2022-10-31T01:13:37;362.65;;;346.17;;
3591;SDS011;1810;48.720;9.094;2022-10-31T01:16:06;375.35;;;358.10;;
3591;SDS011;1810;48.720;9.094;2022-10-31T01:18:37;345.45;;;329.73;;
3591;SDS011;1810;48.720;9.094;2022-10-31T01:21:06;334.58;;;319.67;;
3591;SDS011;1810;48.720;9.094;2022-10-31T01:23:36;323.48;;;309.08;;
3591;SDS011;1810;48.720;9.094;2022-10-31T01:26:07;375.90;;;358.00;;
3591;SDS011;1810;48.720;9.094;2022-10-31T01:28:37;335.38;;;320.45;;
3591;SDS011;1810;48.720;9.094;2022-10-31T01:31:08;340.70;;;325.45;;
3591;SDS011;1810;48.720;9.094;2022-10-31T01:33:37;360.52;;;344.25;;
3591;SDS011;1810;48.720;9.094;2022-10-31T01:36:13;329.23;;;314.27;;
3591;SDS011;1810;48.720;9.094;2022-10-31T01:38:44;321.77;;;307.40;;
3591;SDS011;1810;48.720;9.094;2022-10-31T01:41:14;304.23;;;290.88;;
3591;SDS011;1810;48.720;9.094;2022-10-31T01:43:48;423.25;;;402.45;;
3591;SDS011;1810;48.720;9.094;2022-10-31T01:48:48;452.73;;;429.63;;
3591;SDS011;1810;48.720;9.094;2022-10-31T01:51:17;317.23;;;303.08;;
3591;SDS011;1810;48.720;9.094;2022-10-31T01:53:49;352.73;;;336.13;;
3591;SDS011;1810;48.720;9.094;2022-10-31T01:56:20;419.65;;;398.90;;
3591;SDS011;1810;48.720;9.094;2022-10-31T01:58:48;409.50;;;389.75;;
3591;SDS011;1810;48.720;9.094;2022-10-31T02:01:17;326.90;;;311.55;;
3591;SDS011;1810;48.720;9.094;2022-10-31T02:03:46;460.30;;;436.90;;
3591;SDS011;1810;48.720;9.094;2022-10-31T02:06:19;440.90;;;418.55;;
3591;SDS011;1810;48.720;9.094;2022-10-31T02:08:54;413.95;;;393.45;;
3591;SDS011;1810;48.720;9.094;2022-10-31T02:11:23;304.13;;;290.20;;
3591;SDS011;1810;48.720;9.094;2022-10-31T02:13:51;471.05;;;446.95;;
3591;SDS011;1810;48.720;9.094;2022-10-31T02:16:20;441.65;;;419.48;;
3591;SDS011;1810;48.720;9.094;2022-10-31T02:18:48;410.98;;;390.98;;
3591;SDS011;1810;48.720;9.094;2022-10-31T02:21:17;450.05;;;427.67;;
3591;SDS011;1810;48.720;9.094;2022-10-31T02:27:06;455.15;;;432.45;;
3591;SDS011;1810;48.720;9.094;2022-10-31T02:35:40;456.52;;;433.75;;
3591;SDS011;1810;48.720;9.094;2022-10-31T02:38:16;454.38;;;431.85;;
3591;SDS011;1810;48.720;9.094;2022-10-31T02:40:51;406.25;;;386.70;;
3591;SDS011;1810;48.720;9.094;2022-10-31T02:43:26;416.98;;;396.23;;
3591;SDS011;1810;48.720;9.094;2022-10-31T02:45:58;421.17;;;400.67;;
3591;SDS011;1810;48.720;9.094;2022-10-31T02:48:31;395.60;;;376.42;;
3591;SDS011;1810;48.720;9.094;2022-10-31T02:51:02;342.02;;;326.15;;
3591;SDS011;1810;48.720;9.094;2022-10-31T02:53:31;427.75;;;406.73;;
3591;SDS011;1810;48.720;9.094;2022-10-31T02:56:01;401.88;;;382.58;;
3591;SDS011;1810;48.720;9.094;2022-10-31T02:58:34;420.38;;;399.90;;
3591;SDS011;1810;48.720;9.094;2022-10-31T03:01:26;399.65;;;380.42;;
3591;SDS011;1810;48.720;9.094;2022-10-31T03:07:11;391.95;;;373.40;;
3591;SDS011;1810;48.720;9.094;2022-10-31T03:09:50;369.20;;;352.00;;
3591;SDS011;1810;48.720;9.094;2022-10-31T03:12:24;355.88;;;339.33;;
3591;SDS011;1810;48.720;9.094;2022-10-31T03:14:57;319.27;;;304.92;;
3591;SDS011;1810;48.720;9.094;2022-10-31T03:17:32;306.58;;;293.25;;
3591;SDS011;1810;48.720;9.094;2022-10-31T03:20:06;324.92;;;310.08;;
3591;SDS011;1810;48.720;9.094;2022-10-31T03:22:36;315.35;;;300.90;;
3591;SDS011;1810;48.720;9.094;2022-10-31T03:25:06;310.23;;;296.45;;
3591;SDS011;1810;48.720;9.094;2022-10-31T03:27:35;312.65;;;298.85;;
3591;SDS011;1810;48.720;9.094;2022-10-31T03:30:05;300.70;;;287.25;;
3591;SDS011;1810;48.720;9.094;2022-10-31T03:32:35;305.20;;;291.77;;
3591;SDS011;1810;48.720;9.094;2022-10-31T03:35:07;283.98;;;271.73;;
3591;SDS011;1810;48.720;9.094;2022-10-31T03:37:36;287.80;;;275.13;;
3591;SDS011;1810;48.720;9.094;2022-10-31T03:40:06;292.60;;;279.75;;
3591;SDS011;1810;48.720;9.094;2022-10-31T03:42:37;309.95;;;295.90;;
3591;SDS011;1810;48.720;9.094;2022-10-31T03:45:08;302.45;;;289.13;;
3591;SDS011;1810;48.720;9.094;2022-10-31T03:47:39;324.67;;;310.23;;
3591;SDS011;1810;48.720;9.094;2022-10-31T03:50:09;315.92;;;302.00;;
3591;SDS011;1810;48.720;9.094;2022-10-31T03:52:41;279.75;;;267.73;;
3591;SDS011;1810;48.720;9.094;2022-10-31T03:55:16;300.63;;;287.80;;
3591;SDS011;1810;48.720;9.094;2022-10-31T03:57:48;272.83;;;261.17;;
3591;SDS011;1810;48.720;9.094;2022-10-31T04:00:19;286.90;;;274.75;;
3591;SDS011;1810;48.720;9.094;2022-10-31T04:02:49;327.35;;;312.98;;
3591;SDS011;1810;48.720;9.094;2022-10-31T04:05:20;342.63;;;327.55;;
3591;SDS011;1810;48.720;9.094;2022-10-31T04:07:50;344.38;;;328.88;;
3591;SDS011;1810;48.720;9.094;2022-10-31T04:10:20;330.95;;;316.30;;
3591;SDS011;1810;48.720;9.094;2022-10-31T04:12:58;356.13;;;340.00;;
3591;SDS011;1810;48.720;9.094;2022-10-31T04:15:31;338.65;;;323.60;;
3591;SDS011;1810;48.720;9.094;2022-10-31T04:17:59;310.92;;;297.38;;
3591;SDS011;1810;48.720;9.094;2022-10-31T04:20:31;295.45;;;283.08;;
3591;SDS011;1810;48.720;9.094;2022-10-31T04:23:00;340.25;;;324.98;;
3591;SDS011;1810;48.720;9.094;2022-10-31T04:25:29;371.38;;;354.67;;
3591;SDS011;1810;48.720;9.094;2022-10-31T04:27:57;346.30;;;330.92;;
3591;SDS011;1810;48.720;9.094;2022-10-31T04:30:26;343.30;;;327.50;;
3591;SDS011;1810;48.720;9.094;2022-10-31T04:32:55;362.90;;;346.70;;
3591;SDS011;1810;48.720;9.094;2022-10-31T04:35:24;338.30;;;323.17;;
3591;SDS011;1810;48.720;9.094;2022-10-31T04:37:53;331.88;;;317.13;;
3591;SDS011;1810;48.720;9.094;2022-10-31T04:40:22;319.85;;;305.92;;
3591;SDS011;1810;48.720;9.094;2022-10-31T04:42:50;314.83;;;301.25;;
3591;SDS011;1810;48.720;9.094;2022-10-31T04:45:19;345.33;;;329.98;;
3591;SDS011;1810;48.720;9.094;2022-10-31T04:47:47;319.13;;;305.13;;
3591;SDS011;1810;48.720;9.094;2022-10-31T04:50:15;334.58;;;319.55;;
3591;SDS011;1810;48.720;9.094;2022-10-31T04:52:44;324.75;;;309.98;;
3591;SDS011;1810;48.720;9.094;2022-10-31T04:55:14;338.83;;;323.90;;
3591;SDS011;1810;48.720;9.094;2022-10-31T04:57:43;336.10;;;321.48;;
3591;SDS011;1810;48.720;9.094;2022-10-31T05:00:14;280.85;;;268.85;;
3591;SDS011;1810;48.720;9.094;2022-10-31T05:02:44;256.52;;;245.88;;
3591;SDS011;1810;48.720;9.094;2022-10-31T05:05:12;276.00;;;263.98;;
3591;SDS011;1810;48.720;9.094;2022-10-31T05:07:41;329.48;;;315.17;;
3591;SDS011;1810;48.720;9.094;2022-10-31T05:10:13;307.05;;;294.08;;
3591;SDS011;1810;48.720;9.094;2022-10-31T05:12:47;304.00;;;290.95;;
3591;SDS011;1810;48.720;9.094;2022-10-31T05:15:16;277.73;;;266.02;;
3591;SDS011;1810;48.720;9.094;2022-10-31T05:17:46;336.52;;;321.65;;
3591;SDS011;1810;48.720;9.094;2022-10-31T05:20:15;333.45;;;318.65;;
3591;SDS011;1810;48.720;9.094;2022-10-31T05:22:44;288.38;;;276.13;;
3591;SDS011;1810;48.720;9.094;2022-10-31T05:25:13;337.25;;;322.30;;
3591;SDS011;1810;48.720;9.094;2022-10-31T05:27:45;312.73;;;299.17;;
3591;SDS011;1810;48.720;9.094;2022-10-31T05:30:16;302.10;;;289.02;;
3591;SDS011;1810;48.720;9.094;2022-10-31T05:32:46;256.58;;;245.75;;
3591;SDS011;1810;48.720;9.094;2022-10-31T05:35:16;239.55;;;229.48;;
3591;SDS011;1810;48.720;9.094;2022-10-31T05:37:46;353.30;;;337.35;;
3591;SDS011;1810;48.720;9.094;2022-10-31T05:40:15;305.42;;;291.70;;
3591;SDS011;1810;48.720;9.094;2022-10-31T05:42:45;292.02;;;278.60;;
3591;SDS011;1810;48.720;9.094;2022-10-31T05:45:15;225.15;;;215.35;;
3591;SDS011;1810;48.720;9.094;2022-10-31T05:47:49;365.13;;;348.35;;
3591;SDS011;1810;48.720;9.094;2022-10-31T05:50:18;348.40;;;332.60;;
3591;SDS011;1810;48.720;9.094;2022-10-31T05:52:47;248.60;;;237.57;;
3591;SDS011;1810;48.720;9.094;2022-10-31T05:55:22;358.85;;;342.42;;
3591;SDS011;1810;48.720;9.094;2022-10-31T05:57:51;382.92;;;365.20;;
3591;SDS011;1810;48.720;9.094;2022-10-31T06:00:20;368.35;;;351.20;;
3591;SDS011;1810;48.720;9.094;2022-10-31T06:02:48;365.73;;;349.00;;
3591;SDS011;1810;48.720;9.094;2022-10-31T06:05:17;306.73;;;292.55;;
3591;SDS011;1810;48.720;9.094;2022-10-31T06:07:45;344.73;;;328.88;;
3591;SDS011;1810;48.720;9.094;2022-10-31T06:10:14;287.88;;;274.63;;
3591;SDS011;1810;48.720;9.094;2022-10-31T06:12:43;341.67;;;326.15;;
3591;SDS011;1810;48.720;9.094;2022-10-31T06:15:12;347.70;;;331.77;;
3591;SDS011;1810;48.720;9.094;2022-10-31T06:17:46;373.55;;;356.30;;
3591;SDS011;1810;48.720;9.094;2022-10-31T06:20:14;356.83;;;340.65;;
3591;SDS011;1810;48.720;9.094;2022-10-31T06:22:43;338.30;;;322.80;;
3591;SDS011;1810;48.720;9.094;2022-10-31T06:25:11;383.00;;;365.25;;
3591;SDS011;1810;48.720;9.094;2022-10-31T06:27:39;377.83;;;359.63;;
3591;SDS011;1810;48.720;9.094;2022-10-31T06:30:10;393.50;;;374.33;;
3591;SDS011;1810;48.720;9.094;2022-10-31T06:32:39;403.30;;;383.80;;
3591;SDS011;1810;48.720;9.094;2022-10-31T06:35:07;414.20;;;393.60;;
3591;SDS011;1810;48.720;9.094;2022-10-31T06:37:36;416.25;;;395.75;;
3591;SDS011;1810;48.720;9.094;2022-10-31T06:40:05;403.98;;;384.58;;
3591;SDS011;1810;48.720;9.094;2022-10-31T06:43:03;431.58;;;410.05;;
3591;SDS011;1810;48.720;9.094;2022-10-31T06:45:33;427.20;;;405.50;;
3591;SDS011;1810;48.720;9.094;2022-10-31T06:48:02;461.45;;;437.70;;
3591;SDS011;1810;48.720;9.094;2022-10-31T06:50:49;460.80;;;437.58;;
3591;SDS011;1810;48.720;9.094;2022-10-31T07:21:30;441.08;;;420.33;;
3591;SDS011;1810;48.720;9.094;2022-10-31T07:23:59;453.85;;;431.63;;
3591;SDS011;1810;48.720;9.094;2022-10-31T07:26:27;419.95;;;400.05;;
3591;SDS011;1810;48.720;9.094;2022-10-31T07:28:55;473.63;;;447.55;;
3591;SDS011;1810;48.720;9.094;2022-10-31T07:31:25;475.77;;;451.38;;
3591;SDS011;1810;48.720;9.094;2022-10-31T07:33:53;466.27;;;441.85;;
3591;SDS011;1810;48.720;9.094;2022-10-31T07:49:51;422.80;;;402.65;;
3591;SDS011;1810;48.720;9.094;2022-10-31T07:52:19;407.23;;;388.17;;
3591;SDS011;1810;48.720;9.094;2022-10-31T07:54:48;419.15;;;399.67;;
3591;SDS011;1810;48.720;9.094;2022-10-31T07:57:16;543.50;;;515.17;;
3591;SDS011;1810;48.720;9.094;2022-10-31T07:59:50;941.38;;;872.10;;
3591;SDS011;1810;48.720;9.094;2022-10-31T08:02:18;594.33;;;560.53;;
3591;SDS011;1810;48.720;9.094;2022-10-31T08:04:47;586.85;;;554.55;;
3591;SDS011;1810;48.720;9.094;2022-10-31T08:07:16;752.50;;;705.38;;
3591;SDS011;1810;48.720;9.094;2022-10-31T08:09:45;496.20;;;470.83;;
3591;SDS011;1810;48.720;9.094;2022-10-31T08:12:13;568.17;;;538.25;;
3591;SDS011;1810;48.720;9.094;2022-10-31T08:14:42;1332.45;;;999.90;;
3591;SDS011;1810;48.720;9.094;2022-10-31T08:17:10;1918.45;;;999.90;;
3591;SDS011;1810;48.720;9.094;2022-10-31T08:19:39;977.75;;;904.38;;
3591;SDS011;1810;48.720;9.094;2022-10-31T08:22:07;643.97;;;606.67;;
3591;SDS011;1810;48.720;9.094;2022-10-31T08:24:38;519.25;;;492.73;;
3591;SDS011;1810;48.720;9.094;2022-10-31T08:27:06;526.22;;;499.23;;
3591;SDS011;1810;48.720;9.094;2022-10-31T08:29:35;482.80;;;459.05;;
3591;SDS011;1810;48.720;9.094;2022-10-31T08:32:03;448.98;;;427.50;;
3591;SDS011;1810;48.720;9.094;2022-10-31T08:34:32;545.40;;;517.28;;
3591;SDS011;1810;48.720;9.094;2022-10-31T08:37:00;1222.85;;;999.90;;
3591;SDS011;1810;48.720;9.094;2022-10-31T08:39:28;421.48;;;400.42;;
3591;SDS011;1810;48.720;9.094;2022-10-31T08:41:58;435.15;;;414.60;;
3591;SDS011;1810;48.720;9.094;2022-10-31T08:44:26;422.67;;;402.70;;
3591;SDS011;1810;48.720;9.094;2022-10-31T08:46:55;434.33;;;413.38;;
3591;SDS011;1810;48.720;9.094;2022-10-31T08:49:23;427.65;;;407.65;;
3591;SDS011;1810;48.720;9.094;2022-10-31T08:51:52;407.35;;;388.83;;
3591;SDS011;1810;48.720;9.094;2022-10-31T08:54:20;423.13;;;403.13;;
3591;SDS011;1810;48.720;9.094;2022-10-31T08:56:53;414.27;;;395.05;;
3591;SDS011;1810;48.720;9.094;2022-10-31T08:59:23;415.52;;;396.40;;
3591;SDS011;1810;48.720;9.094;2022-10-31T09:01:51;386.30;;;368.98;;
3591;SDS011;1810;48.720;9.094;2022-10-31T09:04:20;397.33;;;378.88;;
3591;SDS011;1810;48.720;9.094;2022-10-31T09:06:48;404.48;;;385.60;;
3591;SDS011;1810;48.720;9.094;2022-10-31T09:09:37;416.77;;;397.45;;
3591;SDS011;1810;48.720;9.094;2022-10-31T09:12:05;422.88;;;402.45;;
3591;SDS011;1810;48.720;9.094;2022-10-31T09:14:35;415.05;;;395.70;;
3591;SDS011;1810;48.720;9.094;2022-10-31T09:17:03;420.83;;;401.10;;
3591;SDS011;1810;48.720;9.094;2022-10-31T09:19:32;439.80;;;419.10;;
3591;SDS011;1810;48.720;9.094;2022-10-31T09:22:02;562.35;;;533.28;;
3591;SDS011;1810;48.720;9.094;2022-10-31T09:24:30;733.78;;;688.25;;
3591;SDS011;1810;48.720;9.094;2022-10-31T09:26:58;418.45;;;398.42;;
3591;SDS011;1810;48.720;9.094;2022-10-31T09:29:27;446.48;;;425.20;;
3591;SDS011;1810;48.720;9.094;2022-10-31T09:31:57;461.73;;;439.65;;
3591;SDS011;1810;48.720;9.094;2022-10-31T09:34:25;463.10;;;440.92;;
3591;SDS011;1810;48.720;9.094;2022-10-31T09:36:54;443.02;;;422.08;;
3591;SDS011;1810;48.720;9.094;2022-10-31T09:39:22;439.52;;;418.80;;
3591;SDS011;1810;48.720;9.094;2022-10-31T09:41:56;417.30;;;398.00;;
3591;SDS011;1810;48.720;9.094;2022-10-31T09:44:36;417.90;;;398.48;;
3591;SDS011;1810;48.720;9.094;2022-10-31T09:47:14;419.27;;;399.77;;
3591;SDS011;1810;48.720;9.094;2022-10-31T09:52:22;440.52;;;419.95;;
3591;SDS011;1810;48.720;9.094;2022-10-31T09:54:52;415.92;;;396.58;;
3591;SDS011;1810;48.720;9.094;2022-10-31T09:57:25;410.10;;;391.25;;
3591;SDS011;1810;48.720;9.094;2022-10-31T09:59:56;431.63;;;411.27;;
3591;SDS011;1810;48.720;9.094;2022-10-31T10:02:27;446.63;;;424.95;;
3591;SDS011;1810;48.720;9.094;2022-10-31T10:04:57;491.20;;;466.95;;
3591;SDS011;1810;48.720;9.094;2022-10-31T10:07:30;435.77;;;415.45;;
3591;SDS011;1810;48.720;9.094;2022-10-31T10:10:08;477.02;;;453.95;;
3591;SDS011;1810;48.720;9.094;2022-10-31T10:12:46;460.73;;;438.75;;
3591;SDS011;1810;48.720;9.094;2022-10-31T10:15:35;465.05;;;442.17;;
3591;SDS011;1810;48.720;9.094;2022-10-31T10:18:23;444.60;;;423.50;;
3591;SDS011;1810;48.720;9.094;2022-10-31T10:20:58;444.13;;;423.23;;
3591;SDS011;1810;48.720;9.094;2022-10-31T10:23:34;398.70;;;380.58;;
3591;SDS011;1810;48.720;9.094;2022-10-31T10:26:10;400.80;;;382.83;;
3591;SDS011;1810;48.720;9.094;2022-10-31T10:28:44;459.90;;;437.90;;
3591;SDS011;1810;48.720;9.094;2022-10-31T10:31:14;417.65;;;398.52;;
3591;SDS011;1810;48.720;9.094;2022-10-31T10:33:47;413.05;;;393.88;;
3591;SDS011;1810;48.720;9.094;2022-10-31T10:36:30;420.33;;;400.60;;
3591;SDS011;1810;48.720;9.094;2022-10-31T10:39:03;423.08;;;403.30;;
3591;SDS011;1810;48.720;9.094;2022-10-31T10:41:35;411.05;;;392.00;;
3591;SDS011;1810;48.720;9.094;2022-10-31T10:44:04;428.73;;;408.58;;
3591;SDS011;1810;48.720;9.094;2022-10-31T10:46:40;437.83;;;417.30;;
3591;SDS011;1810;48.720;9.094;2022-10-31T10:49:30;419.70;;;399.85;;
3591;SDS011;1810;48.720;9.094;2022-10-31T10:52:04;415.58;;;396.23;;
3591;SDS011;1810;48.720;9.094;2022-10-31T10:54:59;394.27;;;376.58;;
3591;SDS011;1810;48.720;9.094;2022-10-31T10:57:38;407.00;;;388.08;;
3591;SDS011;1810;48.720;9.094;2022-10-31T11:00:17;403.40;;;384.85;;
3591;SDS011;1810;48.720;9.094;2022-10-31T11:02:47;414.30;;;395.08;;
3591;SDS011;1810;48.720;9.094;2022-10-31T11:05:20;454.85;;;432.85;;
3591;SDS011;1810;48.720;9.094;2022-10-31T11:07:55;442.63;;;421.90;;
3591;SDS011;1810;48.720;9.094;2022-10-31T11:10:23;470.08;;;447.30;;
3591;SDS011;1810;48.720;9.094;2022-10-31T11:13:00;486.90;;;463.23;;
3591;SDS011;1810;48.720;9.094;2022-10-31T11:15:50;426.38;;;406.65;;
3591;SDS011;1810;48.720;9.094;2022-10-31T11:18:22;437.17;;;416.52;;
3591;SDS011;1810;48.720;9.094;2022-10-31T11:20:54;396.58;;;378.30;;
3591;SDS011;1810;48.720;9.094;2022-10-31T11:23:24;404.25;;;385.70;;
3591;SDS011;1810;48.720;9.094;2022-10-31T11:25:54;432.08;;;411.80;;
3591;SDS011;1810;48.720;9.094;2022-10-31T11:28:24;456.73;;;434.80;;
3591;SDS011;1810;48.720;9.094;2022-10-31T11:30:55;413.55;;;394.20;;
3591;SDS011;1810;48.720;9.094;2022-10-31T11:33:26;469.25;;;446.50;;
3591;SDS011;1810;48.720;9.094;2022-10-31T11:35:59;431.98;;;411.45;;
3591;SDS011;1810;48.720;9.094;2022-10-31T11:38:30;465.20;;;442.58;;
3591;SDS011;1810;48.720;9.094;2022-10-31T11:41:04;434.85;;;414.38;;
3591;SDS011;1810;48.720;9.094;2022-10-31T11:43:37;470.02;;;447.23;;
3591;SDS011;1810;48.720;9.094;2022-10-31T11:46:09;480.23;;;456.42;;
3591;SDS011;1810;48.720;9.094;2022-10-31T11:48:38;480.77;;;457.02;;
3591;SDS011;1810;48.720;9.094;2022-10-31T11:51:08;489.77;;;465.67;;
3591;SDS011;1810;48.720;9.094;2022-10-31T11:53:36;493.70;;;469.17;;
3591;SDS011;1810;48.720;9.094;2022-10-31T11:56:06;497.45;;;472.75;;
3591;SDS011;1810;48.720;9.094;2022-10-31T11:58:40;455.30;;;433.40;;
3591;SDS011;1810;48.720;9.094;2022-10-31T12:01:21;479.67;;;455.92;;
3591;SDS011;1810;48.720;9.094;2022-10-31T12:03:54;487.65;;;463.55;;
3591;SDS011;1810;48.720;9.094;2022-10-31T12:06:29;504.00;;;478.60;;
3591;SDS011;1810;48.720;9.094;2022-10-31T12:08:59;499.38;;;474.33;;
3591;SDS011;1810;48.720;9.094;2022-10-31T12:11:33;508.83;;;483.17;;
3591;SDS011;1810;48.720;9.094;2022-10-31T12:14:14;433.25;;;412.25;;
3591;SDS011;1810;48.720;9.094;2022-10-31T12:16:50;483.27;;;459.40;;
3591;SDS011;1810;48.720;9.094;2022-10-31T12:19:26;497.25;;;472.60;;
3591;SDS011;1810;48.720;9.094;2022-10-31T12:22:04;507.02;;;481.63;;
3591;SDS011;1810;48.720;9.094;2022-10-31T12:24:48;513.88;;;487.90;;
3591;SDS011;1810;48.720;9.094;2022-10-31T12:27:28;500.33;;;474.95;;
3591;SDS011;1810;48.720;9.094;2022-10-31T12:30:07;512.80;;;486.77;;
3591;SDS011;1810;48.720;9.094;2022-10-31T12:32:41;469.77;;;446.40;;
3591;SDS011;1810;48.720;9.094;2022-10-31T12:35:25;524.80;;;497.92;;
3591;SDS011;1810;48.720;9.094;2022-10-31T12:38:19;519.80;;;493.15;;
3591;SDS011;1810;48.720;9.094;2022-10-31T12:41:05;491.40;;;466.67;;
3591;SDS011;1810;48.720;9.094;2022-10-31T12:43:44;529.00;;;502.30;;
3591;SDS011;1810;48.720;9.094;2022-10-31T12:46:18;487.20;;;462.92;;
3591;SDS011;1810;48.720;9.094;2022-10-31T12:51:49;514.47;;;488.50;;
3591;SDS011;1810;48.720;9.094;2022-10-31T12:57:22;495.27;;;470.63;;
3591;SDS011;1810;48.720;9.094;2022-10-31T12:59:56;503.90;;;478.35;;
3591;SDS011;1810;48.720;9.094;2022-10-31T13:02:30;514.25;;;488.52;;
3591;SDS011;1810;48.720;9.094;2022-10-31T13:05:01;476.73;;;453.17;;
3591;SDS011;1810;48.720;9.094;2022-10-31T13:07:34;465.92;;;443.15;;
3591;SDS011;1810;48.720;9.094;2022-10-31T13:10:07;470.63;;;447.80;;
3591;SDS011;1810;48.720;9.094;2022-10-31T13:12:42;428.63;;;408.10;;
3591;SDS011;1810;48.720;9.094;2022-10-31T13:15:13;421.10;;;401.27;;
3591;SDS011;1810;48.720;9.094;2022-10-31T13:17:45;436.08;;;414.73;;
3591;SDS011;1810;48.720;9.094;2022-10-31T13:20:17;429.42;;;408.90;;
3591;SDS011;1810;48.720;9.094;2022-10-31T13:22:49;455.42;;;433.08;;
3591;SDS011;1810;48.720;9.094;2022-10-31T13:25:22;452.15;;;430.45;;
3591;SDS011;1810;48.720;9.094;2022-10-31T13:27:53;447.52;;;425.85;;
3591;SDS011;1810;48.720;9.094;2022-10-31T13:30:23;448.67;;;427.15;;
3591;SDS011;1810;48.720;9.094;2022-10-31T13:32:54;432.35;;;411.50;;
3591;SDS011;1810;48.720;9.094;2022-10-31T13:35:28;489.03;;;464.60;;
3591;SDS011;1810;48.720;9.094;2022-10-31T13:38:08;478.40;;;454.88;;
3591;SDS011;1810;48.720;9.094;2022-10-31T13:40:50;510.08;;;483.98;;
3591;SDS011;1810;48.720;9.094;2022-10-31T13:43:27;508.50;;;483.10;;
3591;SDS011;1810;48.720;9.094;2022-10-31T13:45:59;540.45;;;512.35;;
3591;SDS011;1810;48.720;9.094;2022-10-31T13:48:38;530.58;;;502.90;;
3591;SDS011;1810;48.720;9.094;2022-10-31T13:51:09;537.65;;;509.55;;
3591;SDS011;1810;48.720;9.094;2022-10-31T13:53:39;531.33;;;503.77;;
3591;SDS011;1810;48.720;9.094;2022-10-31T13:56:16;509.48;;;483.52;;
3591;SDS011;1810;48.720;9.094;2022-10-31T14:01:49;451.30;;;429.42;;
3591;SDS011;1810;48.720;9.094;2022-10-31T14:04:20;440.58;;;419.05;;
3591;SDS011;1810;48.720;9.094;2022-10-31T14:06:55;435.83;;;415.17;;
3591;SDS011;1810;48.720;9.094;2022-10-31T14:09:28;421.27;;;401.25;;
3591;SDS011;1810;48.720;9.094;2022-10-31T14:12:01;388.80;;;370.95;;
3591;SDS011;1810;48.720;9.094;2022-10-31T14:14:34;395.63;;;377.23;;
3591;SDS011;1810;48.720;9.094;2022-10-31T14:17:14;444.65;;;422.88;;
3591;SDS011;1810;48.720;9.094;2022-10-31T14:19:59;465.13;;;442.13;;
3591;SDS011;1810;48.720;9.094;2022-10-31T14:22:29;473.70;;;449.35;;
3591;SDS011;1810;48.720;9.094;2022-10-31T14:27:56;488.70;;;463.65;;
3591;SDS011;1810;48.720;9.094;2022-10-31T14:30:27;494.85;;;469.30;;
3591;SDS011;1810;48.720;9.094;2022-10-31T14:32:58;488.77;;;463.60;;
3591;SDS011;1810;48.720;9.094;2022-10-31T14:35:46;521.25;;;493.08;;
3591;SDS011;1810;48.720;9.094;2022-10-31T14:38:23;496.50;;;470.83;;
3591;SDS011;1810;48.720;9.094;2022-10-31T14:41:06;498.45;;;472.40;;
3591;SDS011;1810;48.720;9.094;2022-10-31T14:46:49;390.17;;;371.20;;
3591;SDS011;1810;48.720;9.094;2022-10-31T14:49:25;466.70;;;443.02;;
3591;SDS011;1810;48.720;9.094;2022-10-31T14:52:01;520.80;;;493.63;;
3591;SDS011;1810;48.720;9.094;2022-10-31T14:54:33;504.70;;;478.90;;
3591;SDS011;1810;48.720;9.094;2022-10-31T14:57:06;599.85;;;565.60;;
3591;SDS011;1810;48.720;9.094;2022-10-31T14:59:42;552.90;;;523.58;;
3591;SDS011;1810;48.720;9.094;2022-10-31T15:02:15;537.72;;;509.88;;
3591;SDS011;1810;48.720;9.094;2022-10-31T15:04:46;529.37;;;501.67;;
3591;SDS011;1810;48.720;9.094;2022-10-31T15:07:16;520.95;;;493.67;;
3591;SDS011;1810;48.720;9.094;2022-10-31T15:09:56;530.15;;;502.20;;
3591;SDS011;1810;48.720;9.094;2022-10-31T15:12:25;554.80;;;525.30;;
3591;SDS011;1810;48.720;9.094;2022-10-31T15:14:56;553.90;;;524.65;;
3591;SDS011;1810;48.720;9.094;2022-10-31T15:17:25;530.47;;;503.20;;
3591;SDS011;1810;48.720;9.094;2022-10-31T15:19:54;518.00;;;491.27;;
3591;SDS011;1810;48.720;9.094;2022-10-31T15:22:23;475.58;;;451.77;;
3591;SDS011;1810;48.720;9.094;2022-10-31T15:24:52;431.55;;;410.15;;
3591;SDS011;1810;48.720;9.094;2022-10-31T15:27:23;408.17;;;387.65;;
3591;SDS011;1810;48.720;9.094;2022-10-31T15:29:52;392.20;;;373.10;;
3591;SDS011;1810;48.720;9.094;2022-10-31T15:32:24;353.25;;;336.63;;
3591;SDS011;1810;48.720;9.094;2022-10-31T15:34:53;349.23;;;332.95;;
3591;SDS011;1810;48.720;9.094;2022-10-31T15:37:23;359.95;;;343.17;;
3591;SDS011;1810;48.720;9.094;2022-10-31T15:39:52;365.42;;;348.08;;
3591;SDS011;1810;48.720;9.094;2022-10-31T15:42:22;382.85;;;364.65;;
3591;SDS011;1810;48.720;9.094;2022-10-31T15:44:52;387.15;;;368.75;;
3591;SDS011;1810;48.720;9.094;2022-10-31T15:47:25;375.00;;;356.42;;
3591;SDS011;1810;48.720;9.094;2022-10-31T15:49:56;456.42;;;429.58;;
3591;SDS011;1810;48.720;9.094;2022-10-31T15:52:27;347.08;;;330.33;;
3591;SDS011;1810;48.720;9.094;2022-10-31T15:54:57;299.70;;;285.90;;
3591;SDS011;1810;48.720;9.094;2022-10-31T15:57:27;328.58;;;312.80;;
3591;SDS011;1810;48.720;9.094;2022-10-31T15:59:56;291.58;;;277.77;;
3591;SDS011;1810;48.720;9.094;2022-10-31T16:02:26;385.55;;;366.67;;